sensor_id;sensor_type;location;lat;lon;timestamp;pressure;altitude;pressure_sealevel;temperature
66795;BMP280;53698;52.738;4.752;2022-08-19T00:02:02;101564.66;;;19.16
66795;BMP280;53698;52.738;4.752;2022-08-19T00:04:30;101567.91;;;19.14
66795;BMP280;53698;52.738;4.752;2022-08-19T00:06:56;101565.91;;;19.15
66795;BMP280;53698;52.738;4.752;2022-08-19T00:09:23;101570.41;;;19.12
66795;BMP280;53698;52.738;4.752;2022-08-19T00:11:49;101565.09;;;19.09
66795;BMP280;53698;52.738;4.752;2022-08-19T00:14:16;101571.66;;;19.11
66795;BMP280;53698;52.738;4.752;2022-08-19T00:16:44;101578.63;;;19.07
66795;BMP280;53698;52.738;4.752;2022-08-19T00:19:10;101578.34;;;19.05
66795;BMP280;53698;52.738;4.752;2022-08-19T00:21:35;101578.81;;;19.03
66795;BMP280;53698;52.738;4.752;2022-08-19T00:24:06;101569.97;;;19.00
66795;BMP280;53698;52.738;4.752;2022-08-19T00:26:31;101571.22;;;18.99
66795;BMP280;53698;52.738;4.752;2022-08-19T00:28:57;101573.69;;;18.97
66795;BMP280;53698;52.738;4.752;2022-08-19T00:31:22;101574.66;;;18.94
66795;BMP280;53698;52.738;4.752;2022-08-19T00:33:48;101573.91;;;18.93
66795;BMP280;53698;52.738;4.752;2022-08-19T00:36:15;101574.09;;;18.90
66795;BMP280;53698;52.738;4.752;2022-08-19T00:38:41;101574.78;;;18.85
66795;BMP280;53698;52.738;4.752;2022-08-19T00:41:18;101559.34;;;18.79
66795;BMP280;53698;52.738;4.752;2022-08-19T00:44:08;101558.78;;;18.75
66795;BMP280;53698;52.738;4.752;2022-08-19T00:46:36;101572.81;;;18.71
66795;BMP280;53698;52.738;4.752;2022-08-19T00:49:07;101568.81;;;18.72
66795;BMP280;53698;52.738;4.752;2022-08-19T00:51:34;101569.06;;;18.74
66795;BMP280;53698;52.738;4.752;2022-08-19T00:54:01;101576.25;;;18.81
66795;BMP280;53698;52.738;4.752;2022-08-19T00:56:27;101564.13;;;18.78
66795;BMP280;53698;52.738;4.752;2022-08-19T00:58:54;101569.84;;;18.75
66795;BMP280;53698;52.738;4.752;2022-08-19T01:01:21;101571.31;;;18.70
66795;BMP280;53698;52.738;4.752;2022-08-19T01:03:46;101573.94;;;18.65
66795;BMP280;53698;52.738;4.752;2022-08-19T01:06:12;101567.38;;;18.63
66795;BMP280;53698;52.738;4.752;2022-08-19T01:08:37;101567.09;;;18.61
66795;BMP280;53698;52.738;4.752;2022-08-19T01:11:03;101566.81;;;18.59
66795;BMP280;53698;52.738;4.752;2022-08-19T01:13:35;101562.25;;;18.56
66795;BMP280;53698;52.738;4.752;2022-08-19T01:16:07;101568.50;;;18.56
66795;BMP280;53698;52.738;4.752;2022-08-19T01:18:38;101566.72;;;18.53
66795;BMP280;53698;52.738;4.752;2022-08-19T01:21:25;101566.44;;;18.51
66795;BMP280;53698;52.738;4.752;2022-08-19T01:23:51;101567.47;;;18.54
66795;BMP280;53698;52.738;4.752;2022-08-19T01:26:20;101570.75;;;18.52
66795;BMP280;53698;52.738;4.752;2022-08-19T01:28:49;101568.44;;;18.51
66795;BMP280;53698;52.738;4.752;2022-08-19T01:31:18;101568.44;;;18.51
66795;BMP280;53698;52.738;4.752;2022-08-19T01:33:44;101567.22;;;18.52
66795;BMP280;53698;52.738;4.752;2022-08-19T01:36:24;101570.81;;;18.58
66795;BMP280;53698;52.738;4.752;2022-08-19T01:38:51;101565.09;;;18.61
66795;BMP280;53698;52.738;4.752;2022-08-19T01:41:17;101553.38;;;18.66
66795;BMP280;53698;52.738;4.752;2022-08-19T01:43:43;101555.00;;;18.72
66795;BMP280;53698;52.738;4.752;2022-08-19T01:46:08;101558.78;;;18.75
66795;BMP280;53698;52.738;4.752;2022-08-19T01:48:40;101568.34;;;18.74
66795;BMP280;53698;52.738;4.752;2022-08-19T01:51:08;101570.34;;;18.73
66795;BMP280;53698;52.738;4.752;2022-08-19T01:53:35;101569.56;;;18.73
66795;BMP280;53698;52.738;4.752;2022-08-19T01:56:01;101572.16;;;18.76
66795;BMP280;53698;52.738;4.752;2022-08-19T01:58:35;101572.59;;;18.75
66795;BMP280;53698;52.738;4.752;2022-08-19T02:01:03;101572.41;;;18.78
66795;BMP280;53698;52.738;4.752;2022-08-19T02:03:28;101583.38;;;18.87
66795;BMP280;53698;52.738;4.752;2022-08-19T02:05:56;101580.88;;;18.89
66795;BMP280;53698;52.738;4.752;2022-08-19T02:08:23;101585.16;;;18.90
66795;BMP280;53698;52.738;4.752;2022-08-19T02:10:48;101583.16;;;18.90
66795;BMP280;53698;52.738;4.752;2022-08-19T02:13:15;101586.69;;;18.91
66795;BMP280;53698;52.738;4.752;2022-08-19T02:15:40;101576.66;;;18.93
66795;BMP280;53698;52.738;4.752;2022-08-19T02:18:06;101578.19;;;18.94
66795;BMP280;53698;52.738;4.752;2022-08-19T02:20:33;101572.66;;;18.94
66795;BMP280;53698;52.738;4.752;2022-08-19T02:22:59;101570.38;;;18.93
66795;BMP280;53698;52.738;4.752;2022-08-19T02:25:26;101566.84;;;18.92
66795;BMP280;53698;52.738;4.752;2022-08-19T02:27:52;101565.34;;;18.91
66795;BMP280;53698;52.738;4.752;2022-08-19T02:30:20;101557.50;;;18.90
66795;BMP280;53698;52.738;4.752;2022-08-19T02:32:46;101558.47;;;18.87
66795;BMP280;53698;52.738;4.752;2022-08-19T02:35:14;101567.81;;;18.89
66795;BMP280;53698;52.738;4.752;2022-08-19T02:37:41;101577.84;;;18.87
66795;BMP280;53698;52.738;4.752;2022-08-19T02:40:25;101573.28;;;18.84
66795;BMP280;53698;52.738;4.752;2022-08-19T02:42:51;101569.75;;;18.84
66795;BMP280;53698;52.738;4.752;2022-08-19T02:45:16;101564.00;;;18.87
66795;BMP280;53698;52.738;4.752;2022-08-19T02:47:42;101563.72;;;18.85
66795;BMP280;53698;52.738;4.752;2022-08-19T02:50:08;101556.19;;;18.85
66795;BMP280;53698;52.738;4.752;2022-08-19T02:52:34;101561.91;;;18.82
66795;BMP280;53698;52.738;4.752;2022-08-19T02:54:59;101554.31;;;18.77
66795;BMP280;53698;52.738;4.752;2022-08-19T02:57:26;101552.50;;;18.74
66795;BMP280;53698;52.738;4.752;2022-08-19T02:59:53;101555.00;;;18.72
66795;BMP280;53698;52.738;4.752;2022-08-19T03:02:19;101556.72;;;18.70
66795;BMP280;53698;52.738;4.752;2022-08-19T03:04:44;101551.66;;;18.68
66795;BMP280;53698;52.738;4.752;2022-08-19T03:07:14;101540.34;;;18.67
66795;BMP280;53698;52.738;4.752;2022-08-19T03:09:40;101536.47;;;18.64
66795;BMP280;53698;52.738;4.752;2022-08-19T03:12:08;101537.25;;;18.65
66795;BMP280;53698;52.738;4.752;2022-08-19T03:14:34;101521.00;;;18.67
66795;BMP280;53698;52.738;4.752;2022-08-19T03:17:00;101515.72;;;18.68
66795;BMP280;53698;52.738;4.752;2022-08-19T03:19:26;101511.44;;;18.68
66795;BMP280;53698;52.738;4.752;2022-08-19T03:21:53;101516.19;;;18.67
66795;BMP280;53698;52.738;4.752;2022-08-19T03:24:19;101512.88;;;18.63
66795;BMP280;53698;52.738;4.752;2022-08-19T03:26:50;101516.38;;;18.64
66795;BMP280;53698;52.738;4.752;2022-08-19T03:29:17;101509.34;;;18.63
66795;BMP280;53698;52.738;4.752;2022-08-19T03:31:43;101513.91;;;18.66
66795;BMP280;53698;52.738;4.752;2022-08-19T03:34:11;101511.91;;;18.66
66795;BMP280;53698;52.738;4.752;2022-08-19T03:36:37;101511.59;;;18.64
66795;BMP280;53698;52.738;4.752;2022-08-19T03:39:03;101514.66;;;18.66
66795;BMP280;53698;52.738;4.752;2022-08-19T03:41:41;101513.91;;;18.66
66795;BMP280;53698;52.738;4.752;2022-08-19T03:44:06;101508.38;;;18.66
66795;BMP280;53698;52.738;4.752;2022-08-19T03:46:34;101508.38;;;18.66
66795;BMP280;53698;52.738;4.752;2022-08-19T03:49:02;101504.41;;;18.67
66795;BMP280;53698;52.738;4.752;2022-08-19T03:51:36;101509.13;;;18.66
66795;BMP280;53698;52.738;4.752;2022-08-19T03:54:05;101509.44;;;18.68
66795;BMP280;53698;52.738;4.752;2022-08-19T03:56:34;101510.19;;;18.68
66795;BMP280;53698;52.738;4.752;2022-08-19T03:59:00;101512.97;;;18.68
66795;BMP280;53698;52.738;4.752;2022-08-19T04:01:27;101520.03;;;18.69
66795;BMP280;53698;52.738;4.752;2022-08-19T04:03:54;101522.50;;;18.68
66795;BMP280;53698;52.738;4.752;2022-08-19T04:06:25;101528.19;;;18.64
66795;BMP280;53698;52.738;4.752;2022-08-19T04:08:53;101527.16;;;18.62
66795;BMP280;53698;52.738;4.752;2022-08-19T04:11:28;101528.38;;;18.61
66795;BMP280;53698;52.738;4.752;2022-08-19T04:13:54;101521.31;;;18.60
66795;BMP280;53698;52.738;4.752;2022-08-19T04:16:23;101525.34;;;18.59
66795;BMP280;53698;52.738;4.752;2022-08-19T04:18:49;101533.66;;;18.59
66795;BMP280;53698;52.738;4.752;2022-08-19T04:21:17;101530.88;;;18.59
66795;BMP280;53698;52.738;4.752;2022-08-19T04:23:44;101532.13;;;18.58
66795;BMP280;53698;52.738;4.752;2022-08-19T04:26:36;101539.84;;;18.54
66795;BMP280;53698;52.738;4.752;2022-08-19T04:29:06;101533.75;;;18.50
66795;BMP280;53698;52.738;4.752;2022-08-19T04:31:32;101532.41;;;18.46
66795;BMP280;53698;52.738;4.752;2022-08-19T04:34:03;101525.84;;;18.43
66795;BMP280;53698;52.738;4.752;2022-08-19T04:36:32;101531.19;;;18.47
66795;BMP280;53698;52.738;4.752;2022-08-19T04:39:04;101547.09;;;18.51
66795;BMP280;53698;52.738;4.752;2022-08-19T04:41:30;101545.09;;;18.52
66795;BMP280;53698;52.738;4.752;2022-08-19T04:44:14;101538.13;;;18.56
66795;BMP280;53698;52.738;4.752;2022-08-19T04:46:43;101537.44;;;18.61
66795;BMP280;53698;52.738;4.752;2022-08-19T04:49:09;101534.31;;;18.68
66795;BMP280;53698;52.738;4.752;2022-08-19T04:51:34;101527.91;;;18.76
66795;BMP280;53698;52.738;4.752;2022-08-19T04:54:04;101522.75;;;18.84
66795;BMP280;53698;52.738;4.752;2022-08-19T04:56:29;101527.59;;;18.88
66795;BMP280;53698;52.738;4.752;2022-08-19T04:58:55;101531.53;;;19.02
66795;BMP280;53698;52.738;4.752;2022-08-19T05:01:23;101537.25;;;19.18
66795;BMP280;53698;52.738;4.752;2022-08-19T05:03:49;101534.47;;;19.32
66795;BMP280;53698;52.738;4.752;2022-08-19T05:06:17;101522.25;;;19.43
66795;BMP280;53698;52.738;4.752;2022-08-19T05:08:43;101533.88;;;19.47
66795;BMP280;53698;52.738;4.752;2022-08-19T05:13:37;101526.59;;;19.69
66795;BMP280;53698;52.738;4.752;2022-08-19T05:16:02;101527.16;;;19.73
66795;BMP280;53698;52.738;4.752;2022-08-19T05:18:28;101529.47;;;19.80
66795;BMP280;53698;52.738;4.752;2022-08-19T05:21:14;101531.06;;;19.86
66795;BMP280;53698;52.738;4.752;2022-08-19T05:23:58;101542.13;;;19.86
66795;BMP280;53698;52.738;4.752;2022-08-19T05:26:25;101541.72;;;19.93
66795;BMP280;53698;52.738;4.752;2022-08-19T05:28:52;101533.66;;;19.95
66795;BMP280;53698;52.738;4.752;2022-08-19T05:31:18;101532.97;;;20.00
66795;BMP280;53698;52.738;4.752;2022-08-19T05:33:43;101531.28;;;20.07
66795;BMP280;53698;52.738;4.752;2022-08-19T05:36:09;101535.63;;;20.14
66795;BMP280;53698;52.738;4.752;2022-08-19T05:38:34;101529.56;;;20.15
66795;BMP280;53698;52.738;4.752;2022-08-19T05:41:06;101538.75;;;20.26
66795;BMP280;53698;52.738;4.752;2022-08-19T05:43:31;101539.19;;;20.20
66795;BMP280;53698;52.738;4.752;2022-08-19T05:45:57;101541.91;;;20.39
66795;BMP280;53698;52.738;4.752;2022-08-19T05:48:23;101535.41;;;20.47
66795;BMP280;53698;52.738;4.752;2022-08-19T05:50:48;101528.94;;;20.56
66795;BMP280;53698;52.738;4.752;2022-08-19T05:53:16;101511.56;;;20.60
66795;BMP280;53698;52.738;4.752;2022-08-19T05:55:42;101516.13;;;20.63
66795;BMP280;53698;52.738;4.752;2022-08-19T05:58:07;101509.34;;;20.64
66795;BMP280;53698;52.738;4.752;2022-08-19T06:00:34;101507.84;;;20.69
66795;BMP280;53698;52.738;4.752;2022-08-19T06:02:59;101516.25;;;20.79
66795;BMP280;53698;52.738;4.752;2022-08-19T06:05:29;101511.19;;;20.83
66795;BMP280;53698;52.738;4.752;2022-08-19T06:07:54;101515.38;;;21.04
66795;BMP280;53698;52.738;4.752;2022-08-19T06:10:20;101516.97;;;21.15
66795;BMP280;53698;52.738;4.752;2022-08-19T06:12:47;101515.44;;;21.14
66795;BMP280;53698;52.738;4.752;2022-08-19T06:15:13;101522.03;;;21.22
66795;BMP280;53698;52.738;4.752;2022-08-19T06:17:38;101517.34;;;21.44
66795;BMP280;53698;52.738;4.752;2022-08-19T06:20:06;101513.63;;;21.79
66795;BMP280;53698;52.738;4.752;2022-08-19T06:22:37;101516.22;;;22.04
66795;BMP280;53698;52.738;4.752;2022-08-19T06:25:03;101518.50;;;22.16
66795;BMP280;53698;52.738;4.752;2022-08-19T06:27:28;101517.97;;;22.39
66795;BMP280;53698;52.738;4.752;2022-08-19T06:29:55;101514.22;;;22.63
66795;BMP280;53698;52.738;4.752;2022-08-19T06:32:21;101512.66;;;22.78
66795;BMP280;53698;52.738;4.752;2022-08-19T06:34:46;101510.06;;;22.96
66795;BMP280;53698;52.738;4.752;2022-08-19T06:37:12;101501.44;;;23.05
66795;BMP280;53698;52.738;4.752;2022-08-19T06:39:38;101509.53;;;23.13
66795;BMP280;53698;52.738;4.752;2022-08-19T06:42:05;101501.56;;;23.44
66795;BMP280;53698;52.738;4.752;2022-08-19T06:44:36;101501.16;;;23.69
66795;BMP280;53698;52.738;4.752;2022-08-19T06:47:04;101499.69;;;24.02
66795;BMP280;53698;52.738;4.752;2022-08-19T06:49:29;101495.88;;;24.33
66795;BMP280;53698;52.738;4.752;2022-08-19T06:51:58;101500.56;;;24.49
66795;BMP280;53698;52.738;4.752;2022-08-19T06:54:25;101510.25;;;24.43
66795;BMP280;53698;52.738;4.752;2022-08-19T06:56:51;101512.97;;;24.25
66795;BMP280;53698;52.738;4.752;2022-08-19T06:59:19;101507.00;;;24.10
66795;BMP280;53698;52.738;4.752;2022-08-19T07:01:50;101512.56;;;24.10
66795;BMP280;53698;52.738;4.752;2022-08-19T07:04:19;101508.34;;;23.98
66795;BMP280;53698;52.738;4.752;2022-08-19T07:06:45;101504.75;;;24.03
66795;BMP280;53698;52.738;4.752;2022-08-19T07:09:13;101506.78;;;24.03
66795;BMP280;53698;52.738;4.752;2022-08-19T07:11:44;101511.09;;;24.04
66795;BMP280;53698;52.738;4.752;2022-08-19T07:14:10;101519.50;;;23.98
66795;BMP280;53698;52.738;4.752;2022-08-19T07:16:35;101519.56;;;23.88
66795;BMP280;53698;52.738;4.752;2022-08-19T07:19:00;101516.31;;;23.79
66795;BMP280;53698;52.738;4.752;2022-08-19T07:21:29;101511.44;;;23.84
66795;BMP280;53698;52.738;4.752;2022-08-19T07:23:56;101521.28;;;23.96
66795;BMP280;53698;52.738;4.752;2022-08-19T07:26:30;101516.69;;;24.04
66795;BMP280;53698;52.738;4.752;2022-08-19T07:28:56;101517.13;;;24.08
66795;BMP280;53698;52.738;4.752;2022-08-19T07:31:24;101519.59;;;24.16
66795;BMP280;53698;52.738;4.752;2022-08-19T07:33:52;101518.34;;;24.17
66795;BMP280;53698;52.738;4.752;2022-08-19T07:36:20;101518.72;;;24.32
66795;BMP280;53698;52.738;4.752;2022-08-19T07:38:48;101512.97;;;24.53
66795;BMP280;53698;52.738;4.752;2022-08-19T07:41:17;101518.50;;;24.59
66795;BMP280;53698;52.738;4.752;2022-08-19T07:43:43;101509.78;;;24.67
66795;BMP280;53698;52.738;4.752;2022-08-19T07:46:09;101517.81;;;24.76
66795;BMP280;53698;52.738;4.752;2022-08-19T07:48:34;101517.75;;;24.82
66795;BMP280;53698;52.738;4.752;2022-08-19T07:51:04;101522.41;;;24.74
66795;BMP280;53698;52.738;4.752;2022-08-19T07:53:31;101525.56;;;24.88
66795;BMP280;53698;52.738;4.752;2022-08-19T07:55:58;101523.44;;;24.71
66795;BMP280;53698;52.738;4.752;2022-08-19T07:58:33;101533.94;;;24.65
66795;BMP280;53698;52.738;4.752;2022-08-19T08:00:59;101517.19;;;24.65
66795;BMP280;53698;52.738;4.752;2022-08-19T08:03:26;101527.47;;;24.47
66795;BMP280;53698;52.738;4.752;2022-08-19T08:06:13;101524.72;;;24.70
66795;BMP280;53698;52.738;4.752;2022-08-19T08:08:58;101524.72;;;24.70
66795;BMP280;53698;52.738;4.752;2022-08-19T08:11:41;101530.09;;;24.91
66795;BMP280;53698;52.738;4.752;2022-08-19T08:14:08;101522.00;;;24.88
66795;BMP280;53698;52.738;4.752;2022-08-19T08:16:35;101529.56;;;24.93
66795;BMP280;53698;52.738;4.752;2022-08-19T08:19:04;101524.72;;;25.17
66795;BMP280;53698;52.738;4.752;2022-08-19T08:21:30;101529.69;;;25.47
66795;BMP280;53698;52.738;4.752;2022-08-19T08:23:56;101531.69;;;25.69
66795;BMP280;53698;52.738;4.752;2022-08-19T08:26:22;101526.97;;;25.77
66795;BMP280;53698;52.738;4.752;2022-08-19T08:28:47;101540.69;;;25.99
66795;BMP280;53698;52.738;4.752;2022-08-19T08:31:13;101537.63;;;26.15
66795;BMP280;53698;52.738;4.752;2022-08-19T08:33:39;101540.88;;;26.19
66795;BMP280;53698;52.738;4.752;2022-08-19T08:36:08;101542.28;;;26.43
66795;BMP280;53698;52.738;4.752;2022-08-19T08:38:34;101526.22;;;26.74
66795;BMP280;53698;52.738;4.752;2022-08-19T08:41:17;101537.94;;;26.72
66795;BMP280;53698;52.738;4.752;2022-08-19T08:43:49;101528.97;;;26.49
66795;BMP280;53698;52.738;4.752;2022-08-19T08:46:40;101545.47;;;26.34
66795;BMP280;53698;52.738;4.752;2022-08-19T08:52:04;101539.00;;;26.39
66795;BMP280;53698;52.738;4.752;2022-08-19T08:54:40;101535.84;;;26.48
66795;BMP280;53698;52.738;4.752;2022-08-19T08:57:15;101540.81;;;26.37
66795;BMP280;53698;52.738;4.752;2022-08-19T08:59:45;101536.75;;;26.37
66795;BMP280;53698;52.738;4.752;2022-08-19T09:02:17;101539.97;;;26.59
66795;BMP280;53698;52.738;4.752;2022-08-19T09:04:42;101546.50;;;26.31
66795;BMP280;53698;52.738;4.752;2022-08-19T09:09:49;101542.59;;;26.21
66795;BMP280;53698;52.738;4.752;2022-08-19T09:14:56;101550.09;;;26.62
66795;BMP280;53698;52.738;4.752;2022-08-19T09:17:25;101550.66;;;26.43
66795;BMP280;53698;52.738;4.752;2022-08-19T09:22:24;101546.25;;;26.78
66795;BMP280;53698;52.738;4.752;2022-08-19T09:24:50;101560.13;;;26.71
66795;BMP280;53698;52.738;4.752;2022-08-19T09:27:20;101564.91;;;26.45
66795;BMP280;53698;52.738;4.752;2022-08-19T09:29:46;101568.97;;;26.44
66795;BMP280;53698;52.738;4.752;2022-08-19T09:32:13;101560.53;;;26.62
66795;BMP280;53698;52.738;4.752;2022-08-19T09:34:39;101570.97;;;26.61
66795;BMP280;53698;52.738;4.752;2022-08-19T09:37:04;101562.41;;;26.85
66795;BMP280;53698;52.738;4.752;2022-08-19T09:39:31;101559.53;;;27.03
66795;BMP280;53698;52.738;4.752;2022-08-19T09:41:56;101563.25;;;26.92
66795;BMP280;53698;52.738;4.752;2022-08-19T09:44:21;101558.50;;;26.75
66795;BMP280;53698;52.738;4.752;2022-08-19T09:46:47;101561.53;;;26.77
66795;BMP280;53698;52.738;4.752;2022-08-19T09:49:12;101565.75;;;26.96
66795;BMP280;53698;52.738;4.752;2022-08-19T09:51:38;101572.31;;;26.98
66795;BMP280;53698;52.738;4.752;2022-08-19T09:54:04;101576.19;;;26.83
66795;BMP280;53698;52.738;4.752;2022-08-19T09:56:30;101579.41;;;26.74
66795;BMP280;53698;52.738;4.752;2022-08-19T09:58:58;101574.84;;;27.27
66795;BMP280;53698;52.738;4.752;2022-08-19T10:01:26;101584.56;;;27.39
66795;BMP280;53698;52.738;4.752;2022-08-19T10:03:56;101573.00;;;27.04
66795;BMP280;53698;52.738;4.752;2022-08-19T10:06:24;101580.25;;;26.82
66795;BMP280;53698;52.738;4.752;2022-08-19T10:08:51;101580.22;;;27.00
66795;BMP280;53698;52.738;4.752;2022-08-19T10:11:19;101577.88;;;27.16
66795;BMP280;53698;52.738;4.752;2022-08-19T10:13:45;101573.78;;;27.17
66795;BMP280;53698;52.738;4.752;2022-08-19T10:16:14;101576.88;;;27.26
66795;BMP280;53698;52.738;4.752;2022-08-19T10:18:40;101573.78;;;27.68
66795;BMP280;53698;52.738;4.752;2022-08-19T10:21:15;101569.31;;;27.85
66795;BMP280;53698;52.738;4.752;2022-08-19T10:23:43;101569.56;;;28.07
66795;BMP280;53698;52.738;4.752;2022-08-19T10:26:11;101567.28;;;28.05
66795;BMP280;53698;52.738;4.752;2022-08-19T10:28:37;101579.06;;;28.04
66795;BMP280;53698;52.738;4.752;2022-08-19T10:31:07;101570.78;;;27.98
66795;BMP280;53698;52.738;4.752;2022-08-19T10:33:34;101568.81;;;27.93
66795;BMP280;53698;52.738;4.752;2022-08-19T10:36:02;101575.97;;;27.94
66795;BMP280;53698;52.738;4.752;2022-08-19T10:38:27;101575.97;;;27.94
66795;BMP280;53698;52.738;4.752;2022-08-19T10:40:54;101575.25;;;27.69
66795;BMP280;53698;52.738;4.752;2022-08-19T10:43:19;101575.34;;;27.76
66795;BMP280;53698;52.738;4.752;2022-08-19T10:45:51;101574.41;;;27.74
66795;BMP280;53698;52.738;4.752;2022-08-19T10:48:17;101580.28;;;27.95
66795;BMP280;53698;52.738;4.752;2022-08-19T10:50:42;101574.41;;;28.06
66795;BMP280;53698;52.738;4.752;2022-08-19T10:53:26;101576.13;;;28.09
66795;BMP280;53698;52.738;4.752;2022-08-19T10:55:51;101573.13;;;28.07
66795;BMP280;53698;52.738;4.752;2022-08-19T10:58:35;101575.78;;;27.80
66795;BMP280;53698;52.738;4.752;2022-08-19T11:01:00;101571.50;;;27.66
66795;BMP280;53698;52.738;4.752;2022-08-19T11:03:26;101570.63;;;27.71
66795;BMP280;53698;52.738;4.752;2022-08-19T11:06:00;101570.94;;;27.55
66795;BMP280;53698;52.738;4.752;2022-08-19T11:08:26;101571.28;;;27.52
66795;BMP280;53698;52.738;4.752;2022-08-19T11:10:53;101574.09;;;27.39
66795;BMP280;53698;52.738;4.752;2022-08-19T11:13:22;101569.78;;;27.38
66795;BMP280;53698;52.738;4.752;2022-08-19T11:15:56;101560.06;;;27.52
66795;BMP280;53698;52.738;4.752;2022-08-19T11:18:22;101570.94;;;27.80
66795;BMP280;53698;52.738;4.752;2022-08-19T11:20:47;101566.53;;;28.05
66795;BMP280;53698;52.738;4.752;2022-08-19T11:23:13;101566.66;;;27.99
66795;BMP280;53698;52.738;4.752;2022-08-19T11:25:39;101569.44;;;27.67
66795;BMP280;53698;52.738;4.752;2022-08-19T11:28:04;101569.78;;;27.38
66795;BMP280;53698;52.738;4.752;2022-08-19T11:30:30;101578.50;;;27.22
66795;BMP280;53698;52.738;4.752;2022-08-19T11:32:55;101581.53;;;27.24
66795;BMP280;53698;52.738;4.752;2022-08-19T11:35:20;101578.59;;;27.29
66795;BMP280;53698;52.738;4.752;2022-08-19T11:37:48;101581.28;;;27.47
66795;BMP280;53698;52.738;4.752;2022-08-19T11:40:13;101589.59;;;27.53
66795;BMP280;53698;52.738;4.752;2022-08-19T11:42:39;101586.03;;;27.52
66795;BMP280;53698;52.738;4.752;2022-08-19T11:45:20;101573.81;;;28.00
66795;BMP280;53698;52.738;4.752;2022-08-19T11:47:46;101568.56;;;28.17
66795;BMP280;53698;52.738;4.752;2022-08-19T11:50:12;101574.84;;;28.10
66795;BMP280;53698;52.738;4.752;2022-08-19T11:52:37;101578.13;;;27.89
66795;BMP280;53698;52.738;4.752;2022-08-19T11:55:03;101577.84;;;28.25
66795;BMP280;53698;52.738;4.752;2022-08-19T11:57:29;101570.16;;;28.45
66795;BMP280;53698;52.738;4.752;2022-08-19T11:59:54;101568.09;;;29.67
66795;BMP280;53698;52.738;4.752;2022-08-19T12:02:19;101555.63;;;30.61
66795;BMP280;53698;52.738;4.752;2022-08-19T12:04:45;101579.28;;;29.87
66795;BMP280;53698;52.738;4.752;2022-08-19T12:07:10;101583.38;;;29.44
66795;BMP280;53698;52.738;4.752;2022-08-19T12:09:35;101589.34;;;28.54
66795;BMP280;53698;52.738;4.752;2022-08-19T12:12:01;101580.31;;;28.48
66795;BMP280;53698;52.738;4.752;2022-08-19T12:14:29;101582.56;;;28.69
66795;BMP280;53698;52.738;4.752;2022-08-19T12:16:56;101583.59;;;29.80
66795;BMP280;53698;52.738;4.752;2022-08-19T12:19:21;101573.09;;;29.88
66795;BMP280;53698;52.738;4.752;2022-08-19T12:21:47;101559.38;;;30.56
66795;BMP280;53698;52.738;4.752;2022-08-19T12:24:12;101568.78;;;30.65
66795;BMP280;53698;52.738;4.752;2022-08-19T12:26:38;101557.09;;;31.20
66795;BMP280;53698;52.738;4.752;2022-08-19T12:29:03;101564.69;;;30.88
66795;BMP280;53698;52.738;4.752;2022-08-19T12:31:29;101565.78;;;29.93
66795;BMP280;53698;52.738;4.752;2022-08-19T12:33:55;101570.41;;;29.14
66795;BMP280;53698;52.738;4.752;2022-08-19T12:36:21;101572.22;;;28.84
66795;BMP280;53698;52.738;4.752;2022-08-19T12:38:47;101571.53;;;28.31
66795;BMP280;53698;52.738;4.752;2022-08-19T12:41:18;101567.50;;;28.40
66795;BMP280;53698;52.738;4.752;2022-08-19T12:43:44;101573.56;;;29.38
66795;BMP280;53698;52.738;4.752;2022-08-19T12:46:10;101561.00;;;30.22
66795;BMP280;53698;52.738;4.752;2022-08-19T12:48:37;101562.63;;;29.62
66795;BMP280;53698;52.738;4.752;2022-08-19T12:51:07;101563.06;;;29.11
66795;BMP280;53698;52.738;4.752;2022-08-19T12:53:33;101565.09;;;28.63
66795;BMP280;53698;52.738;4.752;2022-08-19T12:55:58;101568.13;;;28.26
66795;BMP280;53698;52.738;4.752;2022-08-19T12:58:25;101564.00;;;28.26
66795;BMP280;53698;52.738;4.752;2022-08-19T13:00:51;101557.25;;;28.09
66795;BMP280;53698;52.738;4.752;2022-08-19T13:03:17;101559.63;;;28.38
66795;BMP280;53698;52.738;4.752;2022-08-19T13:05:42;101561.38;;;29.08
66795;BMP280;53698;52.738;4.752;2022-08-19T13:08:08;101556.25;;;29.61
66795;BMP280;53698;52.738;4.752;2022-08-19T13:10:35;101548.28;;;30.65
66795;BMP280;53698;52.738;4.752;2022-08-19T13:13:03;101527.94;;;32.16
66795;BMP280;53698;52.738;4.752;2022-08-19T13:15:34;101528.34;;;32.44
66795;BMP280;53698;52.738;4.752;2022-08-19T13:17:59;101539.97;;;31.93
66795;BMP280;53698;52.738;4.752;2022-08-19T13:20:26;101534.25;;;31.62
66795;BMP280;53698;52.738;4.752;2022-08-19T13:22:52;101548.84;;;31.07
66795;BMP280;53698;52.738;4.752;2022-08-19T13:25:18;101549.47;;;30.84
66795;BMP280;53698;52.738;4.752;2022-08-19T13:27:46;101534.09;;;31.52
66795;BMP280;53698;52.738;4.752;2022-08-19T13:30:13;101539.22;;;31.32
66795;BMP280;53698;52.738;4.752;2022-08-19T13:32:58;101539.00;;;31.45
66795;BMP280;53698;52.738;4.752;2022-08-19T13:35:37;101537.91;;;31.26
66795;BMP280;53698;52.738;4.752;2022-08-19T13:38:03;101534.00;;;31.74
66795;BMP280;53698;52.738;4.752;2022-08-19T13:40:30;101530.72;;;32.23
66795;BMP280;53698;52.738;4.752;2022-08-19T13:42:58;101536.78;;;32.51
66795;BMP280;53698;52.738;4.752;2022-08-19T13:45:24;101535.50;;;32.14
66795;BMP280;53698;52.738;4.752;2022-08-19T13:47:53;101529.41;;;32.96
66795;BMP280;53698;52.738;4.752;2022-08-19T13:50:21;101525.78;;;32.79
66795;BMP280;53698;52.738;4.752;2022-08-19T13:52:47;101513.81;;;33.44
66795;BMP280;53698;52.738;4.752;2022-08-19T13:55:14;101523.25;;;32.90
66795;BMP280;53698;52.738;4.752;2022-08-19T13:57:41;101517.09;;;32.84
66795;BMP280;53698;52.738;4.752;2022-08-19T14:00:16;101525.66;;;31.91
66795;BMP280;53698;52.738;4.752;2022-08-19T14:02:46;101521.94;;;32.67
66795;BMP280;53698;52.738;4.752;2022-08-19T14:05:15;101501.50;;;33.33
66795;BMP280;53698;52.738;4.752;2022-08-19T14:07:41;101512.47;;;33.62
66795;BMP280;53698;52.738;4.752;2022-08-19T14:10:09;101501.75;;;34.38
66795;BMP280;53698;52.738;4.752;2022-08-19T14:12:36;101507.56;;;34.30
66795;BMP280;53698;52.738;4.752;2022-08-19T14:15:03;101512.97;;;33.18